Time;durP1;ratioP1;P1;durP2;ratioP2;P2;SDS_P1;SDS_P2;PMS_P1;PMS_P2;Temp;Humidity;BMP_temperature;BMP_pressure;BME280_temperature;BME280_humidity;BME280_pressure;Samples;Min_cycle;Max_cycle;Signal;HPM_P1;HPM_P2
2022/11/23 00:01:15;;;;;;;;;;;23.00;65.90;;;;;;5059480;28;19908;-72
2022/11/23 00:03:42;;;;;;;;;;;23.00;65.00;;;;;;5059889;28;19912;-72
2022/11/23 00:06:08;;;;;;;;;;;23.00;64.90;;;;;;5058624;28;20700;-70
2022/11/23 00:08:35;;;;;;;;;;;23.00;65.40;;;;;;5062764;28;19913;-71
2022/11/23 00:11:02;;;;;;;;;;;23.20;65.20;;;;;;5059526;28;19991;-69
2022/11/23 00:13:28;;;;;;;;;;;23.20;64.90;;;;;;5059971;28;20042;-72
2022/11/23 00:15:55;;;;;;;;;;;23.30;65.00;;;;;;5060624;28;19915;-73
2022/11/23 00:18:22;;;;;;;;;;;23.40;64.70;;;;;;5044468;28;19913;-71
2022/11/23 00:20:48;;;;;;;;;;;23.50;64.50;;;;;;5059486;28;20269;-74
2022/11/23 00:23:15;;;;;;;;;;;23.70;63.70;;;;;;5058637;28;19923;-72
2022/11/23 00:25:44;;;;;;;;;;;23.70;63.40;;;;;;5059776;28;19916;-72
2022/11/23 00:28:10;;;;;;;;;;;23.80;63.80;;;;;;5058585;28;19912;-71
2022/11/23 00:30:37;;;;;;;;;;;23.80;64.10;;;;;;5057666;28;20261;-72
2022/11/23 00:33:04;;;;;;;;;;;24.00;63.30;;;;;;5059327;28;19912;-72
2022/11/23 00:35:30;;;;;;;;;;;23.90;63.70;;;;;;5059166;28;19918;-70
2022/11/23 00:37:57;;;;;;;;;;;24.10;63.00;;;;;;5059786;28;19918;-70
2022/11/23 00:40:24;;;;;;;;;;;24.20;63.40;;;;;;5072964;28;19958;-71
2022/11/23 00:42:50;;;;;;;;;;;24.60;62.60;;;;;;5065591;28;19909;-72
2022/11/23 00:45:17;;;;;;;;;;;24.70;62.60;;;;;;5057884;28;20380;-72
2022/11/23 00:47:44;;;;;;;;;;;24.90;62.80;;;;;;5059040;28;19919;-70
2022/11/23 00:50:10;;;;;;;;;;;25.10;61.50;;;;;;5058233;28;19913;-72
2022/11/23 00:52:37;;;;;;;;;;;25.10;61.10;;;;;;5055335;28;19995;-72
2022/11/23 00:55:04;;;;;;;;;;;25.10;61.30;;;;;;5059893;28;20392;-72
2022/11/23 00:57:33;;;;;;;;;;;25.00;61.00;;;;;;5058258;28;19908;-72
2022/11/23 01:00:00;;;;;;;;;;;24.90;61.70;;;;;;5059240;28;19944;-70
2022/11/23 01:02:27;;;;;;;;;;;24.80;62.50;;;;;;5056662;28;20042;-72
2022/11/23 01:04:53;;;;;;;;;;;24.90;62.20;;;;;;5058391;28;19917;-73
2022/11/23 01:07:20;;;;;;;;;;;25.00;61.40;;;;;;5058949;28;19954;-72
2022/11/23 01:09:46;;;;;;;;;;;24.90;60.80;;;;;;5069035;28;19912;-72
2022/11/23 01:12:13;;;;;;;;;;;24.90;61.90;;;;;;5058063;28;19915;-73
2022/11/23 01:14:40;;;;;;;;;;;24.90;61.80;;;;;;5057725;28;20385;-71
2022/11/23 01:17:06;;;;;;;;;;;25.00;61.90;;;;;;5091176;28;19991;-73
2022/11/23 01:19:33;;;;;;;;;;;25.00;61.60;;;;;;5061765;28;19996;-70
2022/11/23 01:22:00;;;;;;;;;;;25.30;61.20;;;;;;5056625;28;19908;-71
2022/11/23 01:24:26;;;;;;;;;;;25.30;61.00;;;;;;5057230;28;20158;-74
2022/11/23 01:26:54;;;;;;;;;;;25.40;61.30;;;;;;5057095;28;19921;-71
2022/11/23 01:29:21;;;;;;;;;;;25.60;61.00;;;;;;5062997;28;19913;-71
2022/11/23 01:31:48;;;;;;;;;;;25.70;60.90;;;;;;5057125;28;19920;-71
2022/11/23 01:34:15;;;;;;;;;;;25.70;59.90;;;;;;5056801;28;19955;-72
2022/11/23 01:36:42;;;;;;;;;;;25.80;60.00;;;;;;5057138;28;19928;-71
2022/11/23 01:39:09;;;;;;;;;;;25.80;60.10;;;;;;5056915;28;19919;-72
2022/11/23 01:41:38;;;;;;;;;;;25.90;60.50;;;;;;5057967;28;19967;-68
2022/11/23 01:44:23;;;;;;;;;;;26.00;61.30;;;;;;5055910;28;19917;-71
2022/11/23 01:46:49;;;;;;;;;;;26.10;59.70;;;;;;5057212;28;19922;-72
2022/11/23 01:49:16;;;;;;;;;;;26.10;60.20;;;;;;5057902;28;20282;-73
2022/11/23 01:51:45;;;;;;;;;;;26.40;59.20;;;;;;5057081;28;19920;-70
2022/11/23 01:54:31;;;;;;;;;;;26.50;59.40;;;;;;5056861;28;20361;-73
2022/11/23 01:57:05;;;;;;;;;;;26.60;59.90;;;;;;5056555;28;19919;-73
2022/11/23 01:59:33;;;;;;;;;;;26.60;58.70;;;;;;5057187;28;20198;-73
2022/11/23 02:02:00;;;;;;;;;;;26.70;59.20;;;;;;5057232;28;19909;-73
2022/11/23 02:04:30;;;;;;;;;;;26.70;58.90;;;;;;5057052;28;19924;-73
2022/11/23 02:07:02;;;;;;;;;;;26.80;58.40;;;;;;5056126;28;20284;-71
2022/11/23 02:09:33;;;;;;;;;;;26.90;59.30;;;;;;5056855;28;20002;-73
2022/11/23 02:12:00;;;;;;;;;;;27.20;58.70;;;;;;5056976;28;20321;-72
2022/11/23 02:14:27;;;;;;;;;;;27.30;58.80;;;;;;5057049;28;19947;-70
2022/11/23 02:16:54;;;;;;;;;;;27.50;58.70;;;;;;5056087;28;19908;-69
2022/11/23 02:19:41;;;;;;;;;;;27.60;57.60;;;;;;5056985;28;19912;-72
2022/11/23 02:22:11;;;;;;;;;;;27.70;57.40;;;;;;5036238;28;19913;-72
2022/11/23 02:24:41;;;;;;;;;;;27.70;56.90;;;;;;5048880;28;19985;-71
2022/11/23 02:27:08;;;;;;;;;;;27.80;57.40;;;;;;5057062;28;19925;-71
2022/11/23 02:29:35;;;;;;;;;;;27.90;57.60;;;;;;5057199;28;19915;-72
2022/11/23 02:32:02;;;;;;;;;;;28.20;58.00;;;;;;5056811;28;19924;-72
2022/11/23 02:34:28;;;;;;;;;;;28.20;56.80;;;;;;5057126;28;19940;-72
2022/11/23 02:36:56;;;;;;;;;;;28.40;56.40;;;;;;5056475;28;19919;-73
2022/11/23 02:39:41;;;;;;;;;;;28.30;56.20;;;;;;5056542;28;19917;-73
2022/11/23 02:42:07;;;;;;;;;;;28.70;56.20;;;;;;5056687;28;19913;-72
2022/11/23 02:44:49;;;;;;;;;;;29.20;55.30;;;;;;5055457;28;19908;-72
2022/11/23 02:47:16;;;;;;;;;;;29.80;54.50;;;;;;5056422;28;19989;-71
2022/11/23 02:49:45;;;;;;;;;;;30.10;54.80;;;;;;5056124;28;20019;-72
2022/11/23 02:52:12;;;;;;;;;;;30.50;54.00;;;;;;5056124;28;20637;-71
2022/11/23 02:54:38;;;;;;;;;;;31.10;53.40;;;;;;5056743;28;19909;-71
2022/11/23 02:57:05;;;;;;;;;;;31.70;52.40;;;;;;5056899;28;20323;-73
2022/11/23 02:59:32;;;;;;;;;;;32.30;52.10;;;;;;5067347;28;20364;-71
2022/11/23 03:02:00;;;;;;;;;;;32.90;50.60;;;;;;5076473;28;19908;-72
2022/11/23 03:04:27;;;;;;;;;;;33.40;49.80;;;;;;5067986;28;20767;-72
2022/11/23 03:06:54;;;;;;;;;;;34.00;49.70;;;;;;5057633;28;19925;-73
2022/11/23 03:09:20;;;;;;;;;;;34.30;49.30;;;;;;5067393;28;19908;-71
2022/11/23 03:11:47;;;;;;;;;;;35.00;48.80;;;;;;5077018;28;19909;-72
2022/11/23 03:14:13;;;;;;;;;;;35.60;48.60;;;;;;5059868;28;20434;-73
2022/11/23 03:16:40;;;;;;;;;;;36.60;47.60;;;;;;5060758;28;20383;-73
2022/11/23 03:19:07;;;;;;;;;;;37.40;46.60;;;;;;5060021;28;19959;-72
2022/11/23 03:21:33;;;;;;;;;;;37.80;45.30;;;;;;5060717;28;20132;-72
2022/11/23 03:24:00;;;;;;;;;;;38.10;46.40;;;;;;5060675;28;19958;-71
2022/11/23 03:26:26;;;;;;;;;;;38.50;45.40;;;;;;5058974;28;19917;-73
2022/11/23 03:28:53;;;;;;;;;;;38.60;44.50;;;;;;5056489;28;19912;-72
2022/11/23 03:31:20;;;;;;;;;;;38.20;45.80;;;;;;5070054;28;19909;-73
2022/11/23 03:33:46;;;;;;;;;;;38.70;44.60;;;;;;5055278;28;19920;-71
2022/11/23 03:36:13;;;;;;;;;;;38.80;44.60;;;;;;5054274;28;19928;-72
2022/11/23 03:38:39;;;;;;;;;;;39.00;45.00;;;;;;5051477;28;20262;-72
2022/11/23 03:41:06;;;;;;;;;;;38.90;44.50;;;;;;5054888;28;19912;-73
2022/11/23 03:43:33;;;;;;;;;;;38.40;44.50;;;;;;5060594;28;20026;-71
2022/11/23 03:45:59;;;;;;;;;;;38.60;44.60;;;;;;5060054;28;20399;-73
2022/11/23 03:48:26;;;;;;;;;;;39.20;43.90;;;;;;5060004;28;19922;-71
2022/11/23 03:50:52;;;;;;;;;;;39.90;43.90;;;;;;5059333;28;20338;-71
2022/11/23 03:53:19;;;;;;;;;;;39.70;43.20;;;;;;5059358;28;19912;-71
2022/11/23 03:55:46;;;;;;;;;;;39.60;43.40;;;;;;5060092;28;19918;-73
2022/11/23 03:58:13;;;;;;;;;;;40.10;43.00;;;;;;5059248;28;19959;-71
2022/11/23 04:00:40;;;;;;;;;;;40.70;42.90;;;;;;5063205;28;19910;-71
2022/11/23 04:03:07;;;;;;;;;;;41.10;42.80;;;;;;5059855;28;20365;-71
2022/11/23 04:05:33;;;;;;;;;;;40.30;42.60;;;;;;5060008;28;20011;-73
2022/11/23 04:08:00;;;;;;;;;;;40.00;43.20;;;;;;5060200;28;19913;-71
2022/11/23 04:10:27;;;;;;;;;;;39.30;43.60;;;;;;5058215;28;19916;-71
2022/11/23 04:12:55;;;;;;;;;;;39.90;42.80;;;;;;5059426;28;19973;-71
2022/11/23 04:15:21;;;;;;;;;;;40.60;42.80;;;;;;5091521;28;19995;-71
2022/11/23 04:17:48;;;;;;;;;;;40.60;42.00;;;;;;5059772;28;20059;-73
2022/11/23 04:20:15;;;;;;;;;;;40.20;42.50;;;;;;5071231;28;19919;-71
2022/11/23 04:22:41;;;;;;;;;;;40.30;43.00;;;;;;5058093;28;20247;-73
2022/11/23 04:25:09;;;;;;;;;;;40.70;43.30;;;;;;5056569;28;19927;-73
2022/11/23 04:27:35;;;;;;;;;;;40.70;41.90;;;;;;5059027;28;20050;-72
2022/11/23 04:30:03;;;;;;;;;;;40.80;41.80;;;;;;5064964;28;19912;-73
2022/11/23 04:32:29;;;;;;;;;;;40.70;41.70;;;;;;5089528;28;20364;-72
2022/11/23 04:34:56;;;;;;;;;;;41.00;42.00;;;;;;5054683;28;20425;-74
2022/11/23 04:37:23;;;;;;;;;;;41.40;42.40;;;;;;5056509;28;19908;-72
2022/11/23 04:39:49;;;;;;;;;;;41.30;41.80;;;;;;5057245;28;19912;-73
2022/11/23 04:42:16;;;;;;;;;;;41.90;41.50;;;;;;5053515;28;19913;-73
2022/11/23 04:44:43;;;;;;;;;;;41.50;41.40;;;;;;5054495;28;20671;-72
2022/11/23 04:47:10;;;;;;;;;;;41.70;40.80;;;;;;5056956;28;19916;-71
2022/11/23 04:49:48;;;;;;;;;;;40.80;41.60;;;;;;5055219;28;20364;-72
2022/11/23 04:52:14;;;;;;;;;;;40.90;41.80;;;;;;5054209;28;19916;-73
2022/11/23 04:54:41;;;;;;;;;;;41.40;41.30;;;;;;5056238;28;19955;-73
2022/11/23 04:57:08;;;;;;;;;;;41.00;41.50;;;;;;5056600;28;19924;-73
2022/11/23 04:59:35;;;;;;;;;;;41.30;41.10;;;;;;5053016;28;19917;-72
2022/11/23 05:02:01;;;;;;;;;;;41.20;41.20;;;;;;5056481;28;19920;-71
2022/11/23 05:04:28;;;;;;;;;;;41.30;41.50;;;;;;5055123;28;19958;-72
2022/11/23 05:06:55;;;;;;;;;;;41.40;41.50;;;;;;5057468;28;19973;-72
2022/11/23 05:09:24;;;;;;;;;;;41.90;41.80;;;;;;5054074;28;19912;-73
2022/11/23 05:11:51;;;;;;;;;;;41.70;41.00;;;;;;5057573;28;19908;-72
2022/11/23 05:14:18;;;;;;;;;;;42.00;40.70;;;;;;5057691;28;19912;-73
2022/11/23 05:16:44;;;;;;;;;;;42.10;41.10;;;;;;5057638;28;20396;-73
2022/11/23 05:19:11;;;;;;;;;;;41.50;40.70;;;;;;5057560;28;19913;-72
2022/11/23 05:21:38;;;;;;;;;;;40.90;41.90;;;;;;5088712;28;20402;-72
2022/11/23 05:24:04;;;;;;;;;;;41.10;42.60;;;;;;5056931;28;20262;-72
2022/11/23 05:26:31;;;;;;;;;;;41.40;41.10;;;;;;5054871;28;19928;-73
2022/11/23 05:28:58;;;;;;;;;;;41.30;41.00;;;;;;5053697;28;19960;-72
2022/11/23 05:31:24;;;;;;;;;;;41.20;41.30;;;;;;5054580;28;19913;-73
2022/11/23 05:33:51;;;;;;;;;;;40.90;41.50;;;;;;5057100;28;20273;-71
2022/11/23 05:36:18;;;;;;;;;;;40.20;41.70;;;;;;5057963;28;19916;-73
2022/11/23 05:38:44;;;;;;;;;;;40.20;41.80;;;;;;5061362;28;19912;-72
2022/11/23 05:41:11;;;;;;;;;;;40.10;41.70;;;;;;5077390;28;19908;-72
2022/11/23 05:43:38;;;;;;;;;;;39.90;41.50;;;;;;5070546;28;19920;-73
2022/11/23 05:46:04;;;;;;;;;;;39.30;42.70;;;;;;5048974;28;19955;-75
2022/11/23 05:48:31;;;;;;;;;;;39.40;42.60;;;;;;5057278;28;19908;-70
2022/11/23 05:50:58;;;;;;;;;;;39.20;42.50;;;;;;5077729;28;19955;-70
2022/11/23 05:53:24;;;;;;;;;;;38.90;42.60;;;;;;5072062;28;19916;-73
2022/11/23 05:55:51;;;;;;;;;;;38.00;43.30;;;;;;5057871;28;19912;-72
2022/11/23 05:58:18;;;;;;;;;;;37.30;43.60;;;;;;5057496;28;19908;-72
2022/11/23 06:00:44;;;;;;;;;;;36.30;44.30;;;;;;5056354;28;19908;-71
2022/11/23 06:03:12;;;;;;;;;;;35.40;45.30;;;;;;5056232;28;19940;-73
2022/11/23 06:05:39;;;;;;;;;;;34.50;46.40;;;;;;5036247;28;19933;-70
2022/11/23 06:08:08;;;;;;;;;;;33.80;45.80;;;;;;5047567;28;19916;-73
2022/11/23 06:10:35;;;;;;;;;;;33.30;47.20;;;;;;5062010;28;19916;-71
2022/11/23 06:13:03;;;;;;;;;;;32.70;46.50;;;;;;5055864;28;19908;-72
2022/11/23 06:15:30;;;;;;;;;;;32.30;46.80;;;;;;5054776;28;19912;-71
2022/11/23 06:18:00;;;;;;;;;;;32.10;46.90;;;;;;5055914;28;20395;-72
2022/11/23 06:20:27;;;;;;;;;;;31.50;47.60;;;;;;5057129;28;19912;-73
2022/11/23 06:22:55;;;;;;;;;;;31.40;48.20;;;;;;5088636;28;19962;-72
2022/11/23 06:25:22;;;;;;;;;;;31.10;51.50;;;;;;5055509;28;20539;-72
2022/11/23 06:27:55;;;;;;;;;;;30.60;52.80;;;;;;5056763;28;19978;-74
2022/11/23 06:30:22;;;;;;;;;;;29.80;54.10;;;;;;5057334;28;20622;-74
2022/11/23 06:32:49;;;;;;;;;;;29.30;55.00;;;;;;5056146;28;19913;-74
2022/11/23 06:35:15;;;;;;;;;;;28.90;55.50;;;;;;5056339;28;19995;-73
2022/11/23 06:37:42;;;;;;;;;;;28.70;56.40;;;;;;5055997;28;19913;-72
2022/11/23 06:40:09;;;;;;;;;;;28.30;57.00;;;;;;5055709;28;20357;-71
2022/11/23 06:42:36;;;;;;;;;;;28.20;58.00;;;;;;5056091;28;19920;-73
2022/11/23 06:45:04;;;;;;;;;;;28.00;58.90;;;;;;5058856;28;19984;-73
2022/11/23 06:47:30;;;;;;;;;;;27.90;59.10;;;;;;5058948;28;19970;-73
2022/11/23 06:49:57;;;;;;;;;;;27.80;58.50;;;;;;5060130;28;19908;-73
2022/11/23 06:52:23;;;;;;;;;;;27.70;59.40;;;;;;5058981;28;19961;-72
2022/11/23 06:54:50;;;;;;;;;;;27.50;59.70;;;;;;5058163;28;19909;-72
2022/11/23 06:57:17;;;;;;;;;;;27.40;60.40;;;;;;5059245;28;19913;-73
2022/11/23 06:59:44;;;;;;;;;;;27.30;60.70;;;;;;5059883;28;19915;-72
2022/11/23 07:02:11;;;;;;;;;;;27.40;61.50;;;;;;5060606;28;19919;-72
2022/11/23 07:04:38;;;;;;;;;;;27.40;61.30;;;;;;5059270;28;19947;-73
2022/11/23 07:07:06;;;;;;;;;;;27.40;60.70;;;;;;5061289;28;20372;-73
2022/11/23 07:09:33;;;;;;;;;;;27.10;61.30;;;;;;5060700;28;19908;-73
2022/11/23 07:11:59;;;;;;;;;;;26.90;61.90;;;;;;5060976;28;19912;-72
2022/11/23 07:14:26;;;;;;;;;;;26.70;62.30;;;;;;5060093;28;20385;-71
2022/11/23 07:16:53;;;;;;;;;;;26.50;62.40;;;;;;5060424;28;20353;-73
2022/11/23 07:19:19;;;;;;;;;;;26.50;63.40;;;;;;5060798;28;20003;-73
2022/11/23 07:21:46;;;;;;;;;;;26.60;64.50;;;;;;5059173;28;20019;-72
2022/11/23 07:24:12;;;;;;;;;;;26.70;65.10;;;;;;5060021;28;19917;-71
2022/11/23 07:26:39;;;;;;;;;;;26.60;65.20;;;;;;5059578;28;19917;-73
2022/11/23 07:29:06;;;;;;;;;;;26.30;65.50;;;;;;5061466;28;19908;-73
2022/11/23 07:31:32;;;;;;;;;;;26.10;66.30;;;;;;5060698;28;20141;-72
2022/11/23 07:33:59;;;;;;;;;;;26.00;66.10;;;;;;5091885;28;19935;-72
2022/11/23 07:36:25;;;;;;;;;;;25.90;66.40;;;;;;5059492;28;19908;-74
2022/11/23 07:38:52;;;;;;;;;;;26.00;66.20;;;;;;5058144;28;20327;-73
2022/11/23 07:41:19;;;;;;;;;;;26.00;65.80;;;;;;5060631;28;20428;-74
2022/11/23 07:43:45;;;;;;;;;;;25.70;66.30;;;;;;5058688;28;19913;-74
2022/11/23 07:46:12;;;;;;;;;;;25.70;66.50;;;;;;5061697;28;19924;-74
2022/11/23 07:48:39;;;;;;;;;;;25.60;66.50;;;;;;5061297;28;19920;-72
2022/11/23 07:51:05;;;;;;;;;;;25.40;66.70;;;;;;5060351;28;19917;-71
2022/11/23 07:53:32;;;;;;;;;;;25.30;66.70;;;;;;5058690;28;20365;-72
2022/11/23 07:55:59;;;;;;;;;;;25.20;66.40;;;;;;5056963;28;20368;-73
2022/11/23 07:58:25;;;;;;;;;;;25.00;67.10;;;;;;5059413;28;19920;-73
2022/11/23 08:00:52;;;;;;;;;;;24.80;67.80;;;;;;5059004;28;19908;-71
2022/11/23 08:03:19;;;;;;;;;;;24.70;68.00;;;;;;5058819;28;19959;-72
2022/11/23 08:05:46;;;;;;;;;;;24.60;68.70;;;;;;5058371;28;20017;-73
2022/11/23 08:08:12;;;;;;;;;;;24.70;69.20;;;;;;5059940;28;19908;-73
2022/11/23 08:10:39;;;;;;;;;;;24.60;68.30;;;;;;5058910;28;19913;-72
2022/11/23 08:13:06;;;;;;;;;;;24.50;68.70;;;;;;5058177;28;19908;-73
2022/11/23 08:15:33;;;;;;;;;;;24.60;69.10;;;;;;5057768;28;19999;-72
2022/11/23 08:18:00;;;;;;;;;;;24.60;68.80;;;;;;5058214;28;19909;-72
2022/11/23 08:20:28;;;;;;;;;;;24.50;68.90;;;;;;5058983;28;19912;-73
2022/11/23 08:22:55;;;;;;;;;;;24.30;69.50;;;;;;5056302;28;20273;-72
2022/11/23 08:25:25;;;;;;;;;;;24.10;70.00;;;;;;5060525;28;19916;-73
2022/11/23 08:27:56;;;;;;;;;;;23.90;70.50;;;;;;5058477;28;20003;-72
2022/11/23 08:30:22;;;;;;;;;;;23.80;70.80;;;;;;5060233;28;19913;-73
2022/11/23 08:32:49;;;;;;;;;;;23.80;70.10;;;;;;5058984;28;19913;-72
2022/11/23 08:35:16;;;;;;;;;;;23.70;69.20;;;;;;5059461;28;19919;-72
2022/11/23 08:37:42;;;;;;;;;;;23.60;69.70;;;;;;5059841;28;19909;-72
2022/11/23 08:40:09;;;;;;;;;;;23.50;70.10;;;;;;5058736;28;20309;-72
2022/11/23 08:42:36;;;;;;;;;;;23.30;70.70;;;;;;5059129;28;19908;-72
2022/11/23 08:45:04;;;;;;;;;;;23.10;71.40;;;;;;5055321;28;19912;-71
2022/11/23 08:47:31;;;;;;;;;;;23.10;71.60;;;;;;5058828;28;19916;-73
2022/11/23 08:49:57;;;;;;;;;;;23.00;71.80;;;;;;5056030;28;19918;-72
2022/11/23 08:52:24;;;;;;;;;;;23.10;71.90;;;;;;5059123;28;19917;-72
2022/11/23 08:54:51;;;;;;;;;;;23.00;71.70;;;;;;5057887;28;19913;-72
2022/11/23 08:57:17;;;;;;;;;;;23.00;71.70;;;;;;5059193;28;19948;-72
2022/11/23 08:59:44;;;;;;;;;;;23.00;72.00;;;;;;5057932;28;20447;-71
2022/11/23 09:02:14;;;;;;;;;;;23.00;72.60;;;;;;5056440;28;20007;-72
2022/11/23 09:04:41;;;;;;;;;;;23.10;72.20;;;;;;5058223;28;19920;-73
2022/11/23 09:07:07;;;;;;;;;;;23.00;72.10;;;;;;5056999;28;19916;-72
2022/11/23 09:09:34;;;;;;;;;;;22.90;72.20;;;;;;5059302;28;19909;-71
2022/11/23 09:12:00;;;;;;;;;;;22.90;72.20;;;;;;5056730;28;19958;-71
2022/11/23 09:14:27;;;;;;;;;;;22.80;72.10;;;;;;5059179;28;20007;-73
2022/11/23 09:16:54;;;;;;;;;;;22.80;72.80;;;;;;5058207;28;19995;-74
2022/11/23 09:19:20;;;;;;;;;;;22.90;72.60;;;;;;5058716;28;19909;-72
2022/11/23 09:21:47;;;;;;;;;;;22.80;72.00;;;;;;5057993;28;19913;-73
2022/11/23 09:24:17;;;;;;;;;;;22.60;72.50;;;;;;5057497;28;20010;-75
2022/11/23 09:26:45;;;;;;;;;;;22.60;73.20;;;;;;5057880;28;19917;-74
2022/11/23 09:29:12;;;;;;;;;;;22.60;73.30;;;;;;5039634;28;19913;-75
2022/11/23 09:31:38;;;;;;;;;;;22.70;73.20;;;;;;5058557;28;19920;-73
2022/11/23 09:34:05;;;;;;;;;;;22.70;72.30;;;;;;5057471;28;19908;-72
2022/11/23 09:36:32;;;;;;;;;;;22.70;71.80;;;;;;5058599;28;19908;-72
2022/11/23 09:38:58;;;;;;;;;;;22.70;71.70;;;;;;5058092;28;19916;-73
2022/11/23 09:41:40;;;;;;;;;;;22.60;71.10;;;;;;5057493;28;20378;-74
2022/11/23 09:44:16;;;;;;;;;;;22.50;71.70;;;;;;5055723;28;19919;-71
2022/11/23 09:46:48;;;;;;;;;;;22.50;72.00;;;;;;5057745;28;19928;-73
2022/11/23 09:49:16;;;;;;;;;;;22.40;71.70;;;;;;5057231;28;19913;-73
2022/11/23 09:51:44;;;;;;;;;;;22.20;72.10;;;;;;5058407;28;19908;-73
2022/11/23 09:54:22;;;;;;;;;;;22.20;72.80;;;;;;5056226;28;19908;-72
2022/11/23 09:56:50;;;;;;;;;;;22.10;72.80;;;;;;5056441;28;19982;-73
2022/11/23 09:59:17;;;;;;;;;;;22.20;73.10;;;;;;5055697;28;19904;-74
2022/11/23 10:01:43;;;;;;;;;;;22.10;73.00;;;;;;5057325;28;19947;-73
2022/11/23 10:04:16;;;;;;;;;;;22.20;72.90;;;;;;5058187;28;19923;-71
2022/11/23 10:06:43;;;;;;;;;;;22.30;72.60;;;;;;5056797;28;20121;-71
2022/11/23 10:09:18;;;;;;;;;;;22.20;72.80;;;;;;5057735;28;19970;-72
2022/11/23 10:12:01;;;;;;;;;;;22.20;73.40;;;;;;5057620;28;19915;-73
2022/11/23 10:14:35;;;;;;;;;;;22.30;73.00;;;;;;5056151;28;19915;-74
2022/11/23 10:17:01;;;;;;;;;;;22.30;72.90;;;;;;5054987;28;19966;-72
2022/11/23 10:19:31;;;;;;;;;;;22.10;73.10;;;;;;5054539;28;19912;-73
2022/11/23 10:22:03;;;;;;;;;;;22.20;73.40;;;;;;5057948;28;20277;-72
2022/11/23 10:24:37;;;;;;;;;;;22.20;73.00;;;;;;5059594;28;20363;-70
2022/11/23 10:27:11;;;;;;;;;;;22.30;72.60;;;;;;5057796;28;19928;-72
2022/11/23 10:29:38;;;;;;;;;;;22.40;73.00;;;;;;5056184;28;19912;-72
2022/11/23 10:32:06;;;;;;;;;;;22.40;72.80;;;;;;5058132;28;20293;-72
2022/11/23 10:34:41;;;;;;;;;;;22.30;73.10;;;;;;5057913;28;20353;-74
2022/11/23 10:37:10;;;;;;;;;;;22.40;73.40;;;;;;5058905;28;19935;-73
2022/11/23 10:39:37;;;;;;;;;;;22.40;73.50;;;;;;5057123;28;19944;-74
2022/11/23 10:42:14;;;;;;;;;;;22.40;73.70;;;;;;5056818;28;19908;-72
2022/11/23 10:44:41;;;;;;;;;;;22.40;74.10;;;;;;5055323;28;19912;-72
2022/11/23 10:47:08;;;;;;;;;;;22.40;73.80;;;;;;5057466;28;20373;-73
2022/11/23 10:49:35;;;;;;;;;;;22.40;73.70;;;;;;5057168;28;20387;-73
2022/11/23 10:52:04;;;;;;;;;;;22.30;73.90;;;;;;5053163;28;20011;-73
2022/11/23 10:54:33;;;;;;;;;;;22.30;74.50;;;;;;5058056;28;19909;-72
2022/11/23 10:57:01;;;;;;;;;;;22.20;75.00;;;;;;5037335;28;19912;-72
2022/11/23 10:59:33;;;;;;;;;;;22.20;74.80;;;;;;5053952;28;19909;-73
2022/11/23 11:02:19;;;;;;;;;;;22.30;74.40;;;;;;5046513;28;19913;-72
2022/11/23 11:04:47;;;;;;;;;;;22.20;74.50;;;;;;5055547;28;19932;-73
2022/11/23 11:07:25;;;;;;;;;;;22.20;74.90;;;;;;5058102;28;19959;-72
2022/11/23 11:09:57;;;;;;;;;;;22.20;75.10;;;;;;5054669;28;20284;-73
2022/11/23 11:12:25;;;;;;;;;;;22.10;75.50;;;;;;5058109;28;19966;-73
2022/11/23 11:15:01;;;;;;;;;;;22.10;76.10;;;;;;5055301;28;19913;-72
2022/11/23 11:17:30;;;;;;;;;;;22.00;76.80;;;;;;5057738;28;19908;-73
2022/11/23 11:19:56;;;;;;;;;;;21.90;77.00;;;;;;5055024;28;20344;-72
2022/11/23 11:22:26;;;;;;;;;;;22.00;77.80;;;;;;5057146;28;19978;-73
2022/11/23 11:24:53;;;;;;;;;;;22.00;78.20;;;;;;5055074;28;19916;-73
2022/11/23 11:27:21;;;;;;;;;;;21.90;78.20;;;;;;5057530;28;19921;-73
2022/11/23 11:29:49;;;;;;;;;;;21.90;78.10;;;;;;5057299;28;20254;-73
2022/11/23 11:32:19;;;;;;;;;;;21.90;78.60;;;;;;5061469;28;20352;-73
2022/11/23 11:34:52;;;;;;;;;;;21.90;79.10;;;;;;5061445;28;19908;-72
2022/11/23 11:37:22;;;;;;;;;;;21.80;77.30;;;;;;5061528;28;19913;-73
2022/11/23 11:39:54;;;;;;;;;;;21.80;76.80;;;;;;5059498;28;20058;-73
2022/11/23 11:42:33;;;;;;;;;;;21.80;76.70;;;;;;5059336;28;19966;-72
2022/11/23 11:45:02;;;;;;;;;;;21.80;77.00;;;;;;5058789;28;20241;-72
2022/11/23 11:47:36;;;;;;;;;;;21.90;77.90;;;;;;5060868;28;19920;-72
2022/11/23 11:50:13;;;;;;;;;;;21.90;78.70;;;;;;5057111;28;20364;-72
2022/11/23 11:52:42;;;;;;;;;;;21.90;80.20;;;;;;5060905;28;19970;-73
2022/11/23 11:55:18;;;;;;;;;;;21.90;82.50;;;;;;5057688;28;19920;-72
2022/11/23 11:57:44;;;;;;;;;;;21.90;84.70;;;;;;5060974;28;20319;-72
2022/11/23 12:00:16;;;;;;;;;;;21.70;86.80;;;;;;5058060;28;19999;-72
2022/11/23 12:02:49;;;;;;;;;;;21.60;88.70;;;;;;5061248;28;19908;-72
2022/11/23 12:05:24;;;;;;;;;;;21.50;90.00;;;;;;5090968;28;19921;-72
2022/11/23 12:07:57;;;;;;;;;;;21.40;90.70;;;;;;5060850;28;19920;-73
2022/11/23 12:10:27;;;;;;;;;;;21.30;91.30;;;;;;5059428;28;20643;-73
2022/11/23 12:12:55;;;;;;;;;;;21.30;92.10;;;;;;5060572;28;19936;-72
2022/11/23 12:15:28;;;;;;;;;;;21.20;92.80;;;;;;5059089;28;19941;-73
2022/11/23 12:18:00;;;;;;;;;;;21.10;93.60;;;;;;5060090;28;19917;-72
2022/11/23 12:20:37;;;;;;;;;;;21.00;94.00;;;;;;5058879;28;19916;-72
2022/11/23 12:23:07;;;;;;;;;;;21.00;94.60;;;;;;5059549;28;20423;-70
2022/11/23 12:25:35;;;;;;;;;;;20.90;95.20;;;;;;5059137;28;19951;-71
2022/11/23 12:28:15;;;;;;;;;;;20.70;95.80;;;;;;5059281;28;20423;-73
2022/11/23 12:30:51;;;;;;;;;;;20.70;96.40;;;;;;5059400;28;19973;-73
2022/11/23 12:33:32;;;;;;;;;;;20.50;97.20;;;;;;5058559;28;19912;-72
2022/11/23 12:36:17;;;;;;;;;;;20.50;97.80;;;;;;5059605;28;19999;-72
2022/11/23 12:38:52;;;;;;;;;;;20.50;98.40;;;;;;5058840;28;19951;-72
2022/11/23 12:41:36;;;;;;;;;;;20.50;99.00;;;;;;5058392;28;19912;-71
2022/11/23 12:44:03;;;;;;;;;;;20.50;99.50;;;;;;5058980;28;19944;-72
2022/11/23 12:46:29;;;;;;;;;;;20.60;99.90;;;;;;5058542;28;19921;-71
2022/11/23 12:49:03;;;;;;;;;;;20.60;99.90;;;;;;5059749;28;19939;-72
2022/11/23 12:51:32;;;;;;;;;;;20.60;99.90;;;;;;5058377;28;19913;-73
2022/11/23 12:54:02;;;;;;;;;;;20.60;99.90;;;;;;5059658;28;20308;-72
2022/11/23 12:56:32;;;;;;;;;;;20.50;99.90;;;;;;5059385;28;20327;-72
2022/11/23 12:58:58;;;;;;;;;;;20.50;99.90;;;;;;5059666;28;19917;-73
2022/11/23 13:01:25;;;;;;;;;;;20.50;99.90;;;;;;5059886;28;19913;-72
2022/11/23 13:04:07;;;;;;;;;;;20.40;99.90;;;;;;5057572;28;19909;-72
2022/11/23 13:06:44;;;;;;;;;;;20.30;99.90;;;;;;5057620;28;19921;-73
2022/11/23 13:09:16;;;;;;;;;;;20.30;99.90;;;;;;5058991;28;19909;-71
2022/11/23 13:11:49;;;;;;;;;;;20.30;99.90;;;;;;5057068;28;20389;-71
2022/11/23 13:14:32;;;;;;;;;;;20.30;99.90;;;;;;5059322;28;19915;-72
2022/11/23 13:16:59;;;;;;;;;;;20.30;99.90;;;;;;5059073;28;19908;-72
2022/11/23 13:19:32;;;;;;;;;;;20.20;99.90;;;;;;5058938;28;19966;-72
2022/11/23 13:21:59;;;;;;;;;;;20.30;99.90;;;;;;5057943;28;19967;-72
2022/11/23 13:24:26;;;;;;;;;;;20.20;99.90;;;;;;5059276;28;19908;-72
2022/11/23 13:27:12;;;;;;;;;;;20.20;99.90;;;;;;5056841;28;20003;-72
2022/11/23 13:29:50;;;;;;;;;;;20.30;99.90;;;;;;5057740;28;19920;-72
2022/11/23 13:32:35;;;;;;;;;;;20.30;99.90;;;;;;5058297;28;19913;-72
2022/11/23 13:35:02;;;;;;;;;;;20.20;99.90;;;;;;5057421;28;19912;-72
2022/11/23 13:37:28;;;;;;;;;;;20.20;99.90;;;;;;5059207;28;19917;-72
2022/11/23 13:39:56;;;;;;;;;;;20.20;99.90;;;;;;5056945;28;20246;-72
2022/11/23 13:42:24;;;;;;;;;;;20.30;99.90;;;;;;5058486;28;19908;-73
2022/11/23 13:45:08;;;;;;;;;;;20.30;99.90;;;;;;5057872;28;19913;-72
2022/11/23 13:47:35;;;;;;;;;;;20.20;99.90;;;;;;5058425;28;20400;-72
2022/11/23 13:50:17;;;;;;;;;;;20.20;99.90;;;;;;5057308;28;19909;-73
2022/11/23 13:52:50;;;;;;;;;;;20.20;99.90;;;;;;5046122;28;19920;-72
2022/11/23 13:55:19;;;;;;;;;;;20.20;99.90;;;;;;5058221;28;19908;-72
2022/11/23 13:58:06;;;;;;;;;;;20.10;99.90;;;;;;5057947;28;19995;-72
2022/11/23 14:00:49;;;;;;;;;;;20.10;99.90;;;;;;5058543;28;19909;-72
2022/11/23 14:03:51;;;;;;;;;;;20.10;99.90;;;;;;5056831;28;19916;-73
2022/11/23 14:06:18;;;;;;;;;;;20.10;99.90;;;;;;5034426;28;19928;-71
2022/11/23 14:08:45;;;;;;;;;;;20.00;99.90;;;;;;5052961;28;19909;-71
2022/11/23 14:11:13;;;;;;;;;;;19.90;99.90;;;;;;5057234;28;20007;-73
2022/11/23 14:13:44;;;;;;;;;;;19.90;99.90;;;;;;5058157;28;19916;-73
2022/11/23 14:16:12;;;;;;;;;;;19.90;99.90;;;;;;5057046;28;19909;-72
2022/11/23 14:18:49;;;;;;;;;;;19.90;99.90;;;;;;5058768;28;19960;-73
2022/11/23 14:21:22;;;;;;;;;;;19.80;99.90;;;;;;5057499;28;19981;-72
2022/11/23 14:24:07;;;;;;;;;;;19.80;99.90;;;;;;5089267;28;20312;-72
2022/11/23 14:26:34;;;;;;;;;;;19.90;99.90;;;;;;5057981;28;19913;-71